sensor_id;sensor_type;location;lat;lon;timestamp;pressure;altitude;pressure_sealevel;temperature;humidity
17781;BME280;8498;52.516;13.790;2023-02-19T00:04:35;100898.63;;;7.10;95.21
17781;BME280;8498;52.516;13.790;2023-02-19T00:09:57;100896.03;;;7.08;95.32
17781;BME280;8498;52.516;13.790;2023-02-19T00:15:20;100892.47;;;7.09;95.20
17781;BME280;8498;52.516;13.790;2023-02-19T00:20:44;100896.91;;;7.09;95.06
17781;BME280;8498;52.516;13.790;2023-02-19T00:26:11;100896.97;;;7.07;95.40
17781;BME280;8498;52.516;13.790;2023-02-19T00:31:42;100889.16;;;7.06;95.59
17781;BME280;8498;52.516;13.790;2023-02-19T00:37:05;100888.38;;;7.04;95.77
17781;BME280;8498;52.516;13.790;2023-02-19T00:42:27;100878.59;;;7.06;95.41
17781;BME280;8498;52.516;13.790;2023-02-19T00:47:50;100876.69;;;7.08;95.63
17781;BME280;8498;52.516;13.790;2023-02-19T00:53:16;100873.38;;;7.04;95.20
17781;BME280;8498;52.516;13.790;2023-02-19T00:58:40;100874.44;;;7.00;95.23
17781;BME280;8498;52.516;13.790;2023-02-19T01:04:02;100881.38;;;7.03;95.90
17781;BME280;8498;52.516;13.790;2023-02-19T01:09:27;100882.22;;;7.03;95.19
17781;BME280;8498;52.516;13.790;2023-02-19T01:14:53;100873.53;;;7.01;95.27
17781;BME280;8498;52.516;13.790;2023-02-19T01:20:16;100870.25;;;6.96;95.52
17781;BME280;8498;52.516;13.790;2023-02-19T01:25:39;100862.41;;;6.94;95.41
17781;BME280;8498;52.516;13.790;2023-02-19T01:31:04;100861.56;;;6.94;95.30
17781;BME280;8498;52.516;13.790;2023-02-19T01:36:29;100837.00;;;6.92;95.31
17781;BME280;8498;52.516;13.790;2023-02-19T01:41:51;100833.59;;;6.90;95.40
17781;BME280;8498;52.516;13.790;2023-02-19T01:47:15;100823.03;;;6.90;95.19
17781;BME280;8498;52.516;13.790;2023-02-19T01:52:39;100794.06;;;6.88;94.72
17781;BME280;8498;52.516;13.790;2023-02-19T01:58:02;100797.22;;;6.78;95.74
17781;BME280;8498;52.516;13.790;2023-02-19T02:03:26;100816.19;;;6.69;96.62
17781;BME280;8498;52.516;13.790;2023-02-19T02:08:52;100805.69;;;6.67;97.21
17781;BME280;8498;52.516;13.790;2023-02-19T02:14:36;100796.31;;;6.61;97.76
17781;BME280;8498;52.516;13.790;2023-02-19T02:31:06;100784.63;;;6.48;98.36
17781;BME280;8498;52.516;13.790;2023-02-19T02:36:40;100776.94;;;6.44;98.36
17781;BME280;8498;52.516;13.790;2023-02-19T02:42:06;100792.78;;;6.44;98.52
17781;BME280;8498;52.516;13.790;2023-02-19T02:47:56;100786.50;;;6.46;97.77
17781;BME280;8498;52.516;13.790;2023-02-19T02:53:37;100778.81;;;6.42;97.33
17781;BME280;8498;52.516;13.790;2023-02-19T02:59:22;100785.94;;;6.40;97.21
17781;BME280;8498;52.516;13.790;2023-02-19T03:10:34;100797.50;;;6.37;96.89
17781;BME280;8498;52.516;13.790;2023-02-19T03:16:04;100791.28;;;6.21;97.70
17781;BME280;8498;52.516;13.790;2023-02-19T03:27:18;100808.47;;;6.11;97.59
17781;BME280;8498;52.516;13.790;2023-02-19T03:32:50;100814.09;;;6.03;97.77
17781;BME280;8498;52.516;13.790;2023-02-19T03:38:23;100823.59;;;5.88;97.61
17781;BME280;8498;52.516;13.790;2023-02-19T03:43:56;100814.19;;;5.81;96.97
17781;BME280;8498;52.516;13.790;2023-02-19T04:01:14;100832.88;;;5.58;97.28
17781;BME280;8498;52.516;13.790;2023-02-19T04:06:40;100823.13;;;5.60;96.82
17781;BME280;8498;52.516;13.790;2023-02-19T04:12:05;100814.44;;;5.58;96.71
17781;BME280;8498;52.516;13.790;2023-02-19T04:22:53;100830.66;;;5.49;96.79
17781;BME280;8498;52.516;13.790;2023-02-19T04:28:17;100836.63;;;5.52;96.57
17781;BME280;8498;52.516;13.790;2023-02-19T04:33:39;100839.19;;;5.54;96.46
17781;BME280;8498;52.516;13.790;2023-02-19T04:39:02;100854.69;;;5.41;95.70
17781;BME280;8498;52.516;13.790;2023-02-19T04:44:24;100856.63;;;5.38;96.50
17781;BME280;8498;52.516;13.790;2023-02-19T04:49:46;100853.44;;;5.30;96.20
17781;BME280;8498;52.516;13.790;2023-02-19T04:55:10;100857.53;;;5.16;96.75
17781;BME280;8498;52.516;13.790;2023-02-19T05:00:32;100862.81;;;5.16;96.98
17781;BME280;8498;52.516;13.790;2023-02-19T05:05:55;100868.25;;;5.12;97.58
17781;BME280;8498;52.516;13.790;2023-02-19T05:11:18;100867.56;;;5.08;98.14
17781;BME280;8498;52.516;13.790;2023-02-19T05:16:40;100880.38;;;4.96;98.52
17781;BME280;8498;52.516;13.790;2023-02-19T05:22:03;100877.78;;;4.94;97.59
17781;BME280;8498;52.516;13.790;2023-02-19T05:27:25;100872.72;;;4.90;97.28
17781;BME280;8498;52.516;13.790;2023-02-19T05:32:47;100871.25;;;4.83;97.30
17781;BME280;8498;52.516;13.790;2023-02-19T05:38:10;100880.34;;;4.75;97.44
17781;BME280;8498;52.516;13.790;2023-02-19T05:43:33;100868.28;;;4.70;97.13
17781;BME280;8498;52.516;13.790;2023-02-19T05:48:55;100874.50;;;4.67;97.73
17781;BME280;8498;52.516;13.790;2023-02-19T05:54:19;100880.84;;;4.63;97.75
17781;BME280;8498;52.516;13.790;2023-02-19T05:59:44;100878.25;;;4.62;98.02
17781;BME280;8498;52.516;13.790;2023-02-19T06:05:07;100884.44;;;4.61;97.50
17781;BME280;8498;52.516;13.790;2023-02-19T06:10:29;100884.31;;;4.64;96.73
17781;BME280;8498;52.516;13.790;2023-02-19T06:15:51;100874.44;;;4.69;97.10
17781;BME280;8498;52.516;13.790;2023-02-19T06:21:15;100883.19;;;4.69;96.17
17781;BME280;8498;52.516;13.790;2023-02-19T06:26:38;100884.06;;;4.70;97.14
17781;BME280;8498;52.516;13.790;2023-02-19T06:32:01;100891.03;;;4.71;96.92
17781;BME280;8498;52.516;13.790;2023-02-19T06:37:23;100885.91;;;4.68;97.10
17781;BME280;8498;52.516;13.790;2023-02-19T06:42:45;100912.91;;;4.73;97.04
17781;BME280;8498;52.516;13.790;2023-02-19T06:48:08;100926.97;;;4.72;97.20
17781;BME280;8498;52.516;13.790;2023-02-19T06:53:30;100937.31;;;4.76;96.93
17781;BME280;8498;52.516;13.790;2023-02-19T06:58:54;100944.00;;;4.85;96.90
17781;BME280;8498;52.516;13.790;2023-02-19T07:04:16;100939.63;;;4.84;97.05
17781;BME280;8498;52.516;13.790;2023-02-19T07:09:39;100950.53;;;4.97;96.31
17781;BME280;8498;52.516;13.790;2023-02-19T07:15:01;100949.34;;;5.04;96.44
17781;BME280;8498;52.516;13.790;2023-02-19T07:20:24;100965.75;;;5.10;96.14
17781;BME280;8498;52.516;13.790;2023-02-19T07:25:46;100976.69;;;5.22;95.35
17781;BME280;8498;52.516;13.790;2023-02-19T07:31:09;100997.19;;;5.15;94.77
17781;BME280;8498;52.516;13.790;2023-02-19T07:36:32;101007.94;;;5.31;94.28
17781;BME280;8498;52.516;13.790;2023-02-19T07:41:54;101012.34;;;5.30;94.10
17781;BME280;8498;52.516;13.790;2023-02-19T07:47:21;101016.50;;;5.36;93.42
17781;BME280;8498;52.516;13.790;2023-02-19T07:52:43;101027.97;;;5.35;92.63
17781;BME280;8498;52.516;13.790;2023-02-19T07:58:05;101026.66;;;5.45;92.03
17781;BME280;8498;52.516;13.790;2023-02-19T08:03:28;101038.66;;;5.52;91.78
17781;BME280;8498;52.516;13.790;2023-02-19T08:08:50;101055.44;;;5.29;90.84
17781;BME280;8498;52.516;13.790;2023-02-19T08:14:12;101060.50;;;5.34;91.35
17781;BME280;8498;52.516;13.790;2023-02-19T08:19:35;101082.13;;;5.42;90.71
17781;BME280;8498;52.516;13.790;2023-02-19T08:24:57;101100.44;;;5.45;91.20
17781;BME280;8498;52.516;13.790;2023-02-19T08:30:20;101101.47;;;5.41;90.21
17781;BME280;8498;52.516;13.790;2023-02-19T08:35:43;101116.84;;;5.51;90.85
17781;BME280;8498;52.516;13.790;2023-02-19T08:41:08;101135.00;;;5.59;90.31
17781;BME280;8498;52.516;13.790;2023-02-19T08:46:31;101143.41;;;5.69;89.58
17781;BME280;8498;52.516;13.790;2023-02-19T08:51:55;101151.91;;;5.75;88.89
17781;BME280;8498;52.516;13.790;2023-02-19T08:57:18;101162.66;;;5.93;89.61
17781;BME280;8498;52.516;13.790;2023-02-19T09:02:40;101173.28;;;5.91;88.34
17781;BME280;8498;52.516;13.790;2023-02-19T09:08:03;101179.25;;;6.16;88.03
17781;BME280;8498;52.516;13.790;2023-02-19T09:13:25;101189.56;;;6.22;87.36
17781;BME280;8498;52.516;13.790;2023-02-19T09:18:47;101195.63;;;6.03;86.17
17781;BME280;8498;52.516;13.790;2023-02-19T09:24:10;101207.13;;;6.02;85.99
17781;BME280;8498;52.516;13.790;2023-02-19T09:29:32;101203.53;;;6.03;85.12
17781;BME280;8498;52.516;13.790;2023-02-19T09:34:55;101205.53;;;5.98;84.72
17781;BME280;8498;52.516;13.790;2023-02-19T09:40:18;101216.00;;;6.21;85.60
17781;BME280;8498;52.516;13.790;2023-02-19T09:45:43;101203.50;;;6.24;84.36
17781;BME280;8498;52.516;13.790;2023-02-19T09:51:06;101213.09;;;6.27;83.11
17781;BME280;8498;52.516;13.790;2023-02-19T09:56:30;101220.44;;;6.41;82.83
17781;BME280;8498;52.516;13.790;2023-02-19T10:02:02;101240.66;;;6.62;81.91
17781;BME280;8498;52.516;13.790;2023-02-19T10:07:36;101232.31;;;6.91;80.01
17781;BME280;8498;52.516;13.790;2023-02-19T10:13:20;101247.56;;;7.05;78.40
17781;BME280;8498;52.516;13.790;2023-02-19T10:18:43;101254.53;;;6.86;78.49
17781;BME280;8498;52.516;13.790;2023-02-19T10:24:07;101247.75;;;6.80;78.23
17781;BME280;8498;52.516;13.790;2023-02-19T10:29:35;101278.31;;;7.26;75.74
17781;BME280;8498;52.516;13.790;2023-02-19T10:35:12;101292.66;;;7.40;75.25
17781;BME280;8498;52.516;13.790;2023-02-19T10:40:43;101297.81;;;7.43;73.58
17781;BME280;8498;52.516;13.790;2023-02-19T10:46:39;101297.00;;;7.98;71.13
17781;BME280;8498;52.516;13.790;2023-02-19T10:52:30;101322.22;;;8.95;72.88
17781;BME280;8498;52.516;13.790;2023-02-19T10:57:53;101328.72;;;8.89;68.81
17781;BME280;8498;52.516;13.790;2023-02-19T11:03:20;101339.31;;;7.98;69.38
17781;BME280;8498;52.516;13.790;2023-02-19T11:14:14;101343.44;;;8.41;66.77
17781;BME280;8498;52.516;13.790;2023-02-19T11:19:43;101352.16;;;7.68;67.95
17781;BME280;8498;52.516;13.790;2023-02-19T11:30:39;101365.94;;;8.69;63.43
17781;BME280;8498;52.516;13.790;2023-02-19T11:36:17;101378.19;;;8.71;63.22
17781;BME280;8498;52.516;13.790;2023-02-19T11:47:56;101385.59;;;10.00;60.71
17781;BME280;8498;52.516;13.790;2023-02-19T11:53:28;101372.38;;;10.15;56.56
17781;BME280;8498;52.516;13.790;2023-02-19T11:58:58;101384.94;;;10.59;54.34
17781;BME280;8498;52.516;13.790;2023-02-19T12:22:31;101399.38;;;7.96;57.02
17781;BME280;8498;52.516;13.790;2023-02-19T12:28:01;101399.13;;;8.40;57.62
17781;BME280;8498;52.516;13.790;2023-02-19T12:45:00;101409.06;;;10.40;53.17
17781;BME280;8498;52.516;13.790;2023-02-19T12:50:29;101428.31;;;9.45;53.61
17781;BME280;8498;52.516;13.790;2023-02-19T12:55:53;101419.06;;;9.19;54.33
17781;BME280;8498;52.516;13.790;2023-02-19T13:01:21;101424.97;;;9.24;55.30
17781;BME280;8498;52.516;13.790;2023-02-19T13:07:05;101430.97;;;10.28;51.19
17781;BME280;8498;52.516;13.790;2023-02-19T13:12:33;101437.50;;;10.85;49.71
17781;BME280;8498;52.516;13.790;2023-02-19T13:17:59;101446.13;;;11.04;49.18
17781;BME280;8498;52.516;13.790;2023-02-19T13:23:36;101455.16;;;10.71;48.38
17781;BME280;8498;52.516;13.790;2023-02-19T13:40:33;101450.44;;;9.96;50.95
17781;BME280;8498;52.516;13.790;2023-02-19T13:45:59;101446.41;;;10.53;49.20
17781;BME280;8498;52.516;13.790;2023-02-19T13:51:46;101460.84;;;9.83;51.48
17781;BME280;8498;52.516;13.790;2023-02-19T13:57:24;101461.78;;;9.30;51.28
17781;BME280;8498;52.516;13.790;2023-02-19T14:02:47;101467.97;;;8.95;52.40
17781;BME280;8498;52.516;13.790;2023-02-19T14:08:10;101481.28;;;8.57;52.20
17781;BME280;8498;52.516;13.790;2023-02-19T14:19:14;101500.25;;;8.48;56.94
17781;BME280;8498;52.516;13.790;2023-02-19T14:24:37;101492.72;;;8.76;54.43
17781;BME280;8498;52.516;13.790;2023-02-19T14:30:00;101511.84;;;8.45;52.91
17781;BME280;8498;52.516;13.790;2023-02-19T14:35:34;101506.91;;;8.38;54.15
17781;BME280;8498;52.516;13.790;2023-02-19T14:40:59;101514.44;;;8.27;54.10
17781;BME280;8498;52.516;13.790;2023-02-19T14:46:35;101494.47;;;8.20;53.12
17781;BME280;8498;52.516;13.790;2023-02-19T14:52:03;101502.66;;;8.14;52.60
17781;BME280;8498;52.516;13.790;2023-02-19T14:57:29;101510.09;;;8.05;53.73
17781;BME280;8498;52.516;13.790;2023-02-19T15:02:55;101518.19;;;7.82;52.72
17781;BME280;8498;52.516;13.790;2023-02-19T15:08:23;101507.81;;;7.78;53.76
17781;BME280;8498;52.516;13.790;2023-02-19T15:13:50;101517.53;;;7.57;52.89
17781;BME280;8498;52.516;13.790;2023-02-19T15:19:15;101531.22;;;7.66;52.48
17781;BME280;8498;52.516;13.790;2023-02-19T15:24:43;101540.53;;;7.75;52.57
17781;BME280;8498;52.516;13.790;2023-02-19T15:30:23;101541.84;;;7.65;53.17
17781;BME280;8498;52.516;13.790;2023-02-19T15:35:51;101542.47;;;7.50;52.10
17781;BME280;8498;52.516;13.790;2023-02-19T15:41:18;101550.19;;;7.34;52.06
17781;BME280;8498;52.516;13.790;2023-02-19T15:46:43;101559.22;;;7.28;52.44
17781;BME280;8498;52.516;13.790;2023-02-19T15:52:10;101558.00;;;7.15;52.17
17781;BME280;8498;52.516;13.790;2023-02-19T15:57:36;101575.22;;;7.04;52.43
17781;BME280;8498;52.516;13.790;2023-02-19T16:03:00;101580.59;;;7.00;52.95
17781;BME280;8498;52.516;13.790;2023-02-19T16:08:36;101572.47;;;6.83;53.07
17781;BME280;8498;52.516;13.790;2023-02-19T16:14:22;101584.47;;;6.69;53.32
17781;BME280;8498;52.516;13.790;2023-02-19T16:19:53;101591.13;;;6.55;53.18
17781;BME280;8498;52.516;13.790;2023-02-19T16:30:58;101623.13;;;6.46;53.33
17781;BME280;8498;52.516;13.790;2023-02-19T16:47:26;101633.72;;;6.21;54.14
17781;BME280;8498;52.516;13.790;2023-02-19T16:52:58;101652.66;;;6.08;54.70
17781;BME280;8498;52.516;13.790;2023-02-19T16:58:20;101651.06;;;6.02;55.07
17781;BME280;8498;52.516;13.790;2023-02-19T17:03:44;101654.94;;;5.92;55.23
17781;BME280;8498;52.516;13.790;2023-02-19T17:09:08;101660.44;;;5.84;54.82
17781;BME280;8498;52.516;13.790;2023-02-19T17:14:31;101660.66;;;5.78;56.54
17781;BME280;8498;52.516;13.790;2023-02-19T17:19:53;101665.41;;;5.67;59.36
17781;BME280;8498;52.516;13.790;2023-02-19T17:25:16;101676.75;;;5.69;59.60
17781;BME280;8498;52.516;13.790;2023-02-19T17:30:39;101673.38;;;5.38;61.61
17781;BME280;8498;52.516;13.790;2023-02-19T17:36:02;101682.00;;;5.13;62.88
17781;BME280;8498;52.516;13.790;2023-02-19T17:41:24;101680.78;;;4.96;64.50
17781;BME280;8498;52.516;13.790;2023-02-19T17:46:47;101684.38;;;4.61;66.29
17781;BME280;8498;52.516;13.790;2023-02-19T17:52:09;101698.28;;;4.33;68.14
17781;BME280;8498;52.516;13.790;2023-02-19T17:57:31;101701.53;;;4.09;71.15
17781;BME280;8498;52.516;13.790;2023-02-19T18:02:55;101701.84;;;3.97;72.08
17781;BME280;8498;52.516;13.790;2023-02-19T18:08:17;101704.72;;;3.86;72.80
17781;BME280;8498;52.516;13.790;2023-02-19T18:13:40;101703.22;;;3.76;73.93
17781;BME280;8498;52.516;13.790;2023-02-19T18:19:02;101703.47;;;3.65;74.60
17781;BME280;8498;52.516;13.790;2023-02-19T18:24:25;101721.88;;;3.65;75.42
17781;BME280;8498;52.516;13.790;2023-02-19T18:29:49;101721.75;;;3.72;75.30
17781;BME280;8498;52.516;13.790;2023-02-19T18:35:12;101727.47;;;3.52;76.60
17781;BME280;8498;52.516;13.790;2023-02-19T18:40:34;101732.06;;;3.41;77.70
17781;BME280;8498;52.516;13.790;2023-02-19T18:45:56;101733.81;;;3.42;77.70
17781;BME280;8498;52.516;13.790;2023-02-19T18:51:21;101743.72;;;3.29;77.39
17781;BME280;8498;52.516;13.790;2023-02-19T18:56:45;101730.69;;;3.23;78.69
17781;BME280;8498;52.516;13.790;2023-02-19T19:02:08;101738.50;;;3.26;79.07
17781;BME280;8498;52.516;13.790;2023-02-19T19:07:31;101731.41;;;3.31;77.85
17781;BME280;8498;52.516;13.790;2023-02-19T19:12:53;101734.84;;;3.33;79.09
17781;BME280;8498;52.516;13.790;2023-02-19T19:18:15;101728.22;;;3.55;77.07
17781;BME280;8498;52.516;13.790;2023-02-19T19:23:39;101744.25;;;3.83;75.84
17781;BME280;8498;52.516;13.790;2023-02-19T19:29:01;101745.56;;;4.01;74.88
17781;BME280;8498;52.516;13.790;2023-02-19T19:34:24;101747.94;;;4.12;74.29
17781;BME280;8498;52.516;13.790;2023-02-19T19:39:46;101751.94;;;4.26;74.07
17781;BME280;8498;52.516;13.790;2023-02-19T19:45:09;101751.47;;;4.11;74.46
17781;BME280;8498;52.516;13.790;2023-02-19T19:50:33;101730.38;;;4.14;74.61
17781;BME280;8498;52.516;13.790;2023-02-19T19:55:55;101733.03;;;4.12;74.92
17781;BME280;8498;52.516;13.790;2023-02-19T20:01:18;101732.66;;;3.92;76.12
17781;BME280;8498;52.516;13.790;2023-02-19T20:06:42;101724.28;;;3.75;77.34
17781;BME280;8498;52.516;13.790;2023-02-19T20:12:05;101726.03;;;3.74;77.59
17781;BME280;8498;52.516;13.790;2023-02-19T20:17:27;101733.63;;;3.49;78.71
17781;BME280;8498;52.516;13.790;2023-02-19T20:22:50;101731.28;;;3.37;79.55
17781;BME280;8498;52.516;13.790;2023-02-19T20:28:13;101732.06;;;3.42;79.48
17781;BME280;8498;52.516;13.790;2023-02-19T20:33:35;101739.25;;;3.73;78.59
17781;BME280;8498;52.516;13.790;2023-02-19T20:38:57;101735.88;;;3.66;78.44
17781;BME280;8498;52.516;13.790;2023-02-19T20:44:20;101751.19;;;3.86;78.22
17781;BME280;8498;52.516;13.790;2023-02-19T20:49:44;101762.41;;;3.94;77.49
17781;BME280;8498;52.516;13.790;2023-02-19T20:55:08;101755.38;;;3.94;77.37
17781;BME280;8498;52.516;13.790;2023-02-19T21:00:30;101756.22;;;3.95;77.55
17781;BME280;8498;52.516;13.790;2023-02-19T21:05:53;101761.47;;;3.95;77.25
17781;BME280;8498;52.516;13.790;2023-02-19T21:11:15;101756.38;;;3.89;77.75
17781;BME280;8498;52.516;13.790;2023-02-19T21:16:38;101756.53;;;3.83;78.47
17781;BME280;8498;52.516;13.790;2023-02-19T21:22:00;101764.25;;;3.89;77.96
17781;BME280;8498;52.516;13.790;2023-02-19T21:27:22;101757.31;;;3.86;78.24
17781;BME280;8498;52.516;13.790;2023-02-19T21:32:44;101748.31;;;3.95;78.50
17781;BME280;8498;52.516;13.790;2023-02-19T21:38:07;101741.31;;;3.95;78.45
17781;BME280;8498;52.516;13.790;2023-02-19T21:43:29;101724.81;;;3.89;79.03
17781;BME280;8498;52.516;13.790;2023-02-19T21:48:54;101724.81;;;3.89;79.17
17781;BME280;8498;52.516;13.790;2023-02-19T21:54:22;101708.16;;;3.90;79.26
17781;BME280;8498;52.516;13.790;2023-02-19T21:59:47;101700.44;;;3.84;79.51
17781;BME280;8498;52.516;13.790;2023-02-19T22:05:10;101704.69;;;3.88;79.67
17781;BME280;8498;52.516;13.790;2023-02-19T22:10:32;101703.72;;;3.92;79.80
17781;BME280;8498;52.516;13.790;2023-02-19T22:15:54;101683.53;;;3.94;79.90
17781;BME280;8498;52.516;13.790;2023-02-19T22:21:17;101677.28;;;3.98;80.15
17781;BME280;8498;52.516;13.790;2023-02-19T22:26:39;101658.81;;;4.01;80.29
17781;BME280;8498;52.516;13.790;2023-02-19T22:32:02;101651.91;;;3.95;80.90
17781;BME280;8498;52.516;13.790;2023-02-19T22:37:26;101655.47;;;3.94;80.88
17781;BME280;8498;52.516;13.790;2023-02-19T22:42:50;101655.69;;;3.85;81.24
17781;BME280;8498;52.516;13.790;2023-02-19T22:48:12;101665.28;;;3.88;81.28
17781;BME280;8498;52.516;13.790;2023-02-19T22:53:53;101679.47;;;3.81;81.53
17781;BME280;8498;52.516;13.790;2023-02-19T22:59:16;101689.97;;;3.81;81.54
17781;BME280;8498;52.516;13.790;2023-02-19T23:04:39;101694.38;;;3.80;81.88
17781;BME280;8498;52.516;13.790;2023-02-19T23:10:01;101683.97;;;3.76;82.20
17781;BME280;8498;52.516;13.790;2023-02-19T23:15:24;101689.34;;;3.71;82.39
17781;BME280;8498;52.516;13.790;2023-02-19T23:20:46;101698.19;;;3.67;83.11
17781;BME280;8498;52.516;13.790;2023-02-19T23:26:09;101686.75;;;3.69;82.89
17781;BME280;8498;52.516;13.790;2023-02-19T23:31:32;101677.31;;;3.61;83.61
17781;BME280;8498;52.516;13.790;2023-02-19T23:36:54;101679.19;;;3.56;83.93
17781;BME280;8498;52.516;13.790;2023-02-19T23:42:17;101667.13;;;3.47;84.24
17781;BME280;8498;52.516;13.790;2023-02-19T23:47:39;101655.94;;;3.39;84.64
17781;BME280;8498;52.516;13.790;2023-02-19T23:53:01;101658.59;;;3.38;85.25
17781;BME280;8498;52.516;13.790;2023-02-19T23:58:24;101640.19;;;3.39;85.48
